createdAt,value
2018-12-14T00:02:31.498Z,11
2018-12-14T00:12:39.208Z,9
2018-12-14T00:22:46.889Z,8
2018-12-14T00:32:54.912Z,11
2018-12-14T00:43:03.102Z,10
2018-12-14T00:53:10.838Z,12
2018-12-14T01:03:16.519Z,12
2018-12-14T01:13:23.228Z,11
2018-12-14T01:23:32.212Z,10
2018-12-14T01:33:40.065Z,9
2018-12-14T01:43:46.802Z,8
2018-12-14T01:53:54.393Z,9
2018-12-14T02:04:00.647Z,8
2018-12-14T02:14:09.384Z,9
2018-12-14T02:24:15.680Z,9
2018-12-14T02:34:23.942Z,9
2018-12-14T02:44:31.532Z,7
2018-12-14T02:54:40.190Z,8
2018-12-14T03:04:46.904Z,8
2018-12-14T03:13:03.318Z,7
2018-12-14T03:23:12.581Z,6
2018-12-14T03:33:20.910Z,6
2018-12-14T03:43:27.541Z,5
2018-12-14T03:53:34.635Z,7
2018-12-14T04:03:42.227Z,5
2018-12-14T04:13:48.378Z,7
2018-12-14T04:23:54.734Z,5
2018-12-14T04:34:00.871Z,5
2018-12-14T04:44:08.698Z,4
2018-12-14T04:54:14.363Z,5
2018-12-14T05:04:20.739Z,6
2018-12-14T05:14:30.802Z,7
2018-12-14T05:24:38.478Z,6
2018-12-14T05:34:46.450Z,4
2018-12-14T05:44:53.975Z,7
2018-12-14T05:55:01.895Z,4
2018-12-14T06:05:08.453Z,6
2018-12-14T06:15:15.873Z,7
2018-12-14T06:25:22.550Z,6
2018-12-14T06:35:30.170Z,5
2018-12-14T06:45:38.329Z,6
2018-12-14T06:55:45.124Z,6
2018-12-14T07:05:51.324Z,6
2018-12-14T07:15:59.183Z,4
2018-12-14T07:26:07.743Z,6
2018-12-14T07:36:15.309Z,5
2018-12-14T07:46:25.128Z,7
2018-12-14T07:56:32.316Z,5
2018-12-14T08:06:40.679Z,5
2018-12-14T08:16:49.438Z,5
2018-12-14T08:26:57.201Z,5
2018-12-14T08:37:03.350Z,7
2018-12-14T08:47:17.310Z,5
2018-12-14T08:57:26.141Z,6
2018-12-14T09:07:31.791Z,6
2018-12-14T09:17:38.281Z,7
2018-12-14T09:27:46.430Z,6
2018-12-14T09:37:54.420Z,6
2018-12-14T09:48:01.223Z,7
2018-12-14T09:58:09.323Z,7
2018-12-14T10:08:20.555Z,7
2018-12-14T10:18:38.116Z,9
2018-12-14T10:28:47.377Z,7
2018-12-14T10:38:55.296Z,8
2018-12-14T10:49:06.837Z,9
2018-12-14T10:59:20.133Z,10
2018-12-14T11:09:28.445Z,11
2018-12-14T11:19:38.828Z,10
2018-12-14T11:29:44.617Z,12
2018-12-14T11:39:52.259Z,12
2018-12-14T11:50:00.172Z,13
2018-12-14T12:00:08.106Z,13
2018-12-14T12:03:22.610Z,14
2018-12-14T12:13:31.762Z,13
2018-12-14T12:23:42.536Z,12
2018-12-14T12:33:47.624Z,12
2018-12-14T12:43:56.999Z,11
2018-12-14T12:51:14.104Z,11
2018-12-14T13:01:25.315Z,14
2018-12-14T13:04:52.345Z,16
2018-12-14T13:14:57.051Z,14
2018-12-14T13:18:13.038Z,14
2018-12-14T13:28:19.321Z,14
2018-12-14T13:34:15.792Z,16
2018-12-14T13:44:22.307Z,14
2018-12-14T13:49:41.118Z,13
2018-12-14T13:58:17.835Z,18
2018-12-14T13:59:29.991Z,18
2018-12-14T14:09:32.916Z,17
2018-12-14T14:16:52.021Z,19
2018-12-14T14:23:02.351Z,18
2018-12-14T14:28:15.092Z,16
2018-12-14T14:36:37.183Z,15
2018-12-14T14:37:47.907Z,17
2018-12-14T14:38:36.106Z,15
2018-12-14T14:48:41.928Z,15
2018-12-14T14:58:02.817Z,18
2018-12-14T14:59:13.130Z,22
2018-12-14T15:09:22.424Z,15
2018-12-14T15:19:31.353Z,16
2018-12-14T15:22:45.893Z,16
2018-12-14T15:32:49.329Z,24
2018-12-14T15:42:57.190Z,20
2018-12-14T15:53:03.405Z,16
2018-12-14T16:03:13.992Z,18
2018-12-14T16:11:22.234Z,18
2018-12-14T16:21:26.453Z,17
2018-12-14T16:31:37.313Z,22
2018-12-14T16:41:45.939Z,29
2018-12-14T16:51:54.329Z,34
2018-12-14T17:01:59.939Z,30
2018-12-14T17:07:16.572Z,18
2018-12-14T17:17:24.633Z,20
2018-12-14T17:24:42.454Z,20
2018-12-14T17:34:48.342Z,26
2018-12-14T17:44:56.245Z,21
2018-12-14T17:55:09.531Z,21
2018-12-14T17:57:22.008Z,17
2018-12-14T18:01:34.905Z,19
2018-12-14T18:04:48.646Z,15
2018-12-14T18:14:56.388Z,25
2018-12-14T18:25:01.472Z,25
2018-12-14T18:31:18.371Z,23
2018-12-14T18:37:35.227Z,45
2018-12-14T18:39:56.578Z,16
2018-12-14T18:50:01.896Z,32
2018-12-14T19:00:10.191Z,20
2018-12-14T19:10:16.791Z,21
2018-12-14T19:16:34.959Z,39
2018-12-14T19:26:42.703Z,50
2018-12-14T19:36:50.658Z,32
2018-12-14T19:46:55.470Z,54
2018-12-14T19:57:01.507Z,68
2018-12-14T20:07:08.837Z,69
2018-12-14T20:17:16.931Z,16
2018-12-14T20:27:24.020Z,15
2018-12-14T20:37:34.651Z,16
2018-12-14T20:47:40.171Z,18
2018-12-14T20:57:49.424Z,15
2018-12-14T21:07:55.622Z,15
2018-12-14T21:18:03.177Z,14
2018-12-14T21:28:11.776Z,16
2018-12-14T21:38:19.506Z,16
2018-12-14T21:48:26.947Z,16
2018-12-14T21:58:33.191Z,15
2018-12-14T22:08:40.123Z,15
2018-12-14T22:18:47.504Z,16
2018-12-14T22:28:54.451Z,14
2018-12-14T22:39:03.001Z,15
2018-12-14T22:49:09.634Z,15
2018-12-14T22:59:17.492Z,17
2018-12-14T23:09:22.969Z,17
2018-12-14T23:19:29.959Z,16
2018-12-14T23:29:38.420Z,13
2018-12-14T23:39:48.529Z,15
2018-12-14T23:49:56.261Z,15
